Airport Mail Center, CA

8:35 PM PST on February 12, 2016 (GMT -0800)
bel air | | Change Station
CLOSE
Current Station
Personal Weather Station
Location: San Bruno, CA
Elevation: 7 ft
Nearby Weather Stations

Elev 7 ft 37.63 °N, 122.41 °W | Updated 2 minutes ago

Mostly Cloudy
Mostly Cloudy
56.7 °F
Feels Like 56.7 °F
N
4.2
Wind Variable Wind from West

Today
High -- | Low -- °F
--% Chance of Precip.
Yesterday
High -- | Low -- °F
Precip. -- in
Pressure 30.20 in
Visibility 10.0 miles
Clouds Few 1000 ft
Few 1500 ft
Mostly Cloudy 20000 ft
Dew Point 54 °F
Humidity 91%
Rainfall 0.00 in
Snow Depth Not available.
7:02 AM 5:45 PM
Waxing Crescent, 27% visible
METAR KSFO 130356Z 28014KT 10SM FEW010 FEW015 BKN200 14/12 A3020 RMK AO2 SLP225 T01390122 $
Pressure 30.20 in
Visibility 10.0 miles
Clouds Few 1000 ft
Few 1500 ft
Mostly Cloudy 20000 ft
Dew Point 54 °F
Humidity 91%
Rainfall 0.00 in
Snow Depth Not available.
7:02 AM 5:45 PM
Waxing Crescent, 27% visible
METAR KSFO 130356Z 28014KT 10SM FEW010 FEW015 BKN200 14/12 A3020 RMK AO2 SLP225 T01390122 $

10-Day Weather Forecast

Almanac

Astronomy

Feb. 12, 2016 Rise Set
Actual Time
Civil Twilight
Nautical Twilight
Astronomical Twilight
Moon
Length of Visible Light
Length of Day
Tomorrow will be .
, % of the Moon is Illuminated

Today's Extremes

State Highs State Lows

Community

WunderPhotos

Upload Photos

1,892,501 photos uploaded!

WunderBlog® & News

Nearby

Air Quality

  Air Quality AQ Index Pollutant
Not available.

Snow Depth

Station Depth Elevation

Earthquake Activity

City Distance Mag. Time & Date
Minimum magnitude displayed is 2.5.

Coastal Water Temperatures

Place Temperature

Stations

Nearby Weather Stations

Station Location Temp. Windchill Dew Point Humidity Wind Precip. Elev Updated Type
                   

Watches & Warnings

There are currently no watches in effect.